Kezdőlap
METAR-TAF:

METAR-TAF

Repülőterek :

Bandar Lengeh, Irán

földrajzi szélesség: 26-35N, földrajzi hosszúság: 054-50E, magasság: 14 m

Jelenlegi meteorológiai megfigyelések

A jelentés 1 órával és 24 perccel ezelõtt készült, 18:00 UTC
Nyugat-északnyugati szél 4 kt
Hőmérséklet 25°C
Páratartalom 74%
Légköri nyomás 1008 hPa
Látótávolság: 4000 m
Száraz légköri homály,

METAR: OIBL 211800Z 30004KT 4000 HZ NSC 25/20 Q1008

Idő: 23:54 (19:24 UTC)


TAF: hiányzik

Meteorológiai megfigyelések és előrejelzések több, mint 4000 repülőtéren (METAR és TAF jelentéseket).

A térképen piros és sárga pontok jelzik az elérhető meteorológiai állomásokat.

Mozgassa az egeret a pont fölött, hogy megjelenjen az állomás neve.

Azután kattintson az időjárási megfigyelések és előrejelzések megtekintéséhez.

A térkép megváltoztatása: kattintson a fekete keresztel jelölt zöld gombra ráközelítéshez, a vonallal jelölt zöld gombra távolításhoz, vagy a zöld nyilakra a szomszédos térképek eléréséhez.


METAR-TAF: